Time;durP1;ratioP1;P1;durP2;ratioP2;P2;SDS_P1;SDS_P2;PMS_P1;PMS_P2;Temp;Humidity;BMP_temperature;BMP_pressure;BME280_temperature;BME280_humidity;BME280_pressure;Samples;Min_cycle;Max_cycle;Signal;HPM_P1;HPM_P2
2023/10/21 00:01:33;;;;;;;17.70;13.53;;;7.80;99.90;;;;;;5115211;28;20452;-59
2023/10/21 00:04:00;;;;;;;18.50;13.00;;;7.80;99.90;;;;;;5114840;28;20529;-60
2023/10/21 00:06:26;;;;;;;20.60;14.47;;;7.70;99.90;;;;;;5115023;28;20450;-59
2023/10/21 00:08:53;;;;;;;22.30;14.13;;;7.70;99.90;;;;;;5114669;28;20446;-59
2023/10/21 00:11:20;;;;;;;22.20;14.10;;;7.70;99.90;;;;;;5114505;28;20540;-59
2023/10/21 00:13:47;;;;;;;19.50;14.20;;;7.80;99.90;;;;;;5114743;28;20536;-59
2023/10/21 00:16:16;;;;;;;17.87;14.13;;;7.80;99.90;;;;;;5114566;28;20448;-60
2023/10/21 00:18:42;;;;;;;21.80;15.20;;;7.80;99.90;;;;;;5114447;28;21023;-59
2023/10/21 00:21:08;;;;;;;21.27;14.27;;;7.80;99.90;;;;;;5113925;28;20442;-60
2023/10/21 00:23:35;;;;;;;20.53;15.70;;;7.80;99.90;;;;;;5114342;28;20881;-60
2023/10/21 00:26:02;;;;;;;23.13;16.90;;;7.80;99.90;;;;;;5114242;28;20532;-60
2023/10/21 00:28:30;;;;;;;24.70;16.53;;;7.80;99.90;;;;;;5114454;28;20442;-59
2023/10/21 00:30:57;;;;;;;24.90;16.33;;;7.80;99.90;;;;;;5114486;28;20532;-60
2023/10/21 00:33:23;;;;;;;20.67;14.67;;;7.70;99.90;;;;;;5114210;28;20478;-60
2023/10/21 00:35:50;;;;;;;21.33;15.23;;;7.80;99.90;;;;;;5114211;28;20541;-59
2023/10/21 00:38:16;;;;;;;19.70;16.50;;;7.90;99.90;;;;;;5114038;28;20850;-60
2023/10/21 00:40:50;;;;;;;24.77;15.87;;;7.90;99.90;;;;;;5114269;28;20463;-59
2023/10/21 00:46:15;;;;;;;18.60;14.37;;;7.90;99.90;;;;;;5152193;27;20511;-60
2023/10/21 00:48:42;;;;;;;22.53;15.87;;;7.90;99.90;;;;;;5131311;28;20509;-61
2023/10/21 00:51:10;;;;;;;20.27;16.47;;;7.90;99.90;;;;;;5131619;28;20903;-60
2023/10/21 00:53:37;;;;;;;19.10;15.40;;;7.90;99.90;;;;;;5131414;28;20804;-60
2023/10/21 00:56:05;;;;;;;23.50;16.83;;;8.00;99.90;;;;;;5131332;28;20441;-61
2023/10/21 00:58:32;;;;;;;21.50;17.37;;;8.00;99.90;;;;;;5131188;28;20480;-60
2023/10/21 01:01:01;;;;;;;23.60;16.97;;;8.00;99.90;;;;;;5131290;28;21002;-60
2023/10/21 01:03:30;;;;;;;26.77;17.67;;;8.00;99.90;;;;;;5131004;28;20441;-60
2023/10/21 01:05:57;;;;;;;23.53;17.50;;;8.00;99.90;;;;;;5131142;28;20835;-61
2023/10/21 01:08:23;;;;;;;23.60;16.90;;;8.00;99.90;;;;;;5131120;28;20531;-60
2023/10/21 01:10:50;;;;;;;26.83;17.33;;;8.00;99.90;;;;;;5131036;28;20527;-60
2023/10/21 01:13:16;;;;;;;29.40;18.07;;;8.00;99.90;;;;;;5130910;28;20437;-61
2023/10/21 01:15:43;;;;;;;26.60;17.53;;;8.10;99.90;;;;;;5130904;28;20534;-60
2023/10/21 01:18:10;;;;;;;21.77;16.07;;;8.10;99.90;;;;;;5130752;28;20524;-60
2023/10/21 01:20:39;;;;;;;25.00;16.77;;;8.20;99.90;;;;;;5130929;28;20441;-61
2023/10/21 01:23:07;;;;;;;24.60;17.00;;;8.20;99.90;;;;;;5130852;28;20441;-61
2023/10/21 01:25:35;;;;;;;23.97;17.30;;;8.20;99.90;;;;;;5130610;28;20481;-60
2023/10/21 01:28:01;;;;;;;24.87;17.70;;;8.20;99.90;;;;;;5130644;28;20540;-61
2023/10/21 01:30:28;;;;;;;24.30;17.03;;;8.20;99.90;;;;;;5131029;28;20532;-61
2023/10/21 01:32:54;;;;;;;23.77;18.13;;;8.10;99.90;;;;;;5130708;28;20536;-61
2023/10/21 01:35:21;;;;;;;27.27;17.97;;;8.20;99.90;;;;;;5130634;28;20448;-61
2023/10/21 01:37:48;;;;;;;27.47;18.73;;;8.20;99.90;;;;;;5130499;28;20804;-60
2023/10/21 01:40:15;;;;;;;22.97;17.30;;;8.20;99.90;;;;;;5130326;28;20452;-60
2023/10/21 01:42:43;;;;;;;25.10;17.20;;;8.20;99.90;;;;;;5130339;28;20437;-60
2023/10/21 01:45:10;;;;;;;23.93;17.87;;;8.20;99.90;;;;;;5130111;28;20489;-60
2023/10/21 01:47:37;;;;;;;25.70;17.47;;;8.20;99.90;;;;;;5130390;28;20719;-61
2023/10/21 01:50:07;;;;;;;25.70;18.03;;;8.20;99.90;;;;;;5130393;28;20452;-61
2023/10/21 01:52:34;;;;;;;28.30;19.60;;;8.30;99.90;;;;;;5130190;28;20451;-61
2023/10/21 01:55:03;;;;;;;25.10;17.70;;;8.30;99.90;;;;;;5130137;28;20449;-60
2023/10/21 01:57:30;;;;;;;26.37;17.77;;;8.20;99.90;;;;;;5116467;28;20468;-60
2023/10/21 01:59:58;;;;;;;29.27;18.73;;;8.30;99.90;;;;;;5116661;28;20532;-61
2023/10/21 02:02:25;;;;;;;24.63;17.60;;;8.30;99.90;;;;;;5116392;28;20532;-60
2023/10/21 02:04:51;;;;;;;26.20;18.60;;;8.30;99.90;;;;;;5116274;28;20505;-61
2023/10/21 02:07:19;;;;;;;24.27;17.40;;;8.30;99.90;;;;;;5116036;28;20536;-60
2023/10/21 02:09:45;;;;;;;26.40;17.50;;;8.30;99.90;;;;;;5116145;28;20471;-60
2023/10/21 02:12:12;;;;;;;24.85;17.27;;;8.30;99.90;;;;;;5116026;28;20532;-61
2023/10/21 02:14:39;;;;;;;28.10;19.03;;;8.30;99.90;;;;;;5116243;28;20283;-61
2023/10/21 02:17:07;;;;;;;26.53;18.93;;;8.30;99.90;;;;;;5116133;28;20857;-61
2023/10/21 02:19:33;;;;;;;34.20;21.57;;;8.40;99.90;;;;;;5116044;28;20528;-60
2023/10/21 02:21:59;;;;;;;27.90;20.50;;;8.40;99.90;;;;;;5115951;28;20532;-61
2023/10/21 02:24:26;;;;;;;28.70;18.50;;;8.40;99.90;;;;;;5115629;28;20933;-61
2023/10/21 02:26:53;;;;;;;26.27;17.90;;;8.50;99.90;;;;;;5116013;28;20446;-61
2023/10/21 02:29:19;;;;;;;29.10;19.23;;;8.50;99.90;;;;;;5115899;28;20442;-60
2023/10/21 02:31:46;;;;;;;27.40;18.57;;;8.50;99.90;;;;;;5115848;28;20441;-61
2023/10/21 02:34:13;;;;;;;25.37;17.80;;;8.40;99.90;;;;;;5115755;28;20448;-60
2023/10/21 02:36:40;;;;;;;30.30;17.63;;;8.40;99.90;;;;;;5115638;28;20446;-60
2023/10/21 02:39:07;;;;;;;25.20;18.23;;;8.40;99.90;;;;;;5115477;28;20448;-60
2023/10/21 02:41:34;;;;;;;24.57;17.10;;;8.40;99.90;;;;;;5115488;28;20452;-60
2023/10/21 02:44:00;;;;;;;26.20;18.70;;;8.40;99.90;;;;;;5115389;28;20448;-60
2023/10/21 02:46:27;;;;;;;28.90;18.57;;;8.30;99.90;;;;;;5115511;28;20488;-60
2023/10/21 02:48:53;;;;;;;28.10;18.87;;;8.30;99.90;;;;;;5115450;28;20441;-60
2023/10/21 02:51:21;;;;;;;21.80;17.13;;;8.30;99.90;;;;;;5115361;28;20528;-60
2023/10/21 02:53:48;;;;;;;25.37;17.40;;;8.40;99.90;;;;;;5115173;28;20456;-61
2023/10/21 02:56:14;;;;;;;29.63;18.50;;;8.40;99.90;;;;;;5115509;28;20446;-60
2023/10/21 02:58:41;;;;;;;27.20;17.63;;;8.40;99.90;;;;;;5115380;28;20537;-60
2023/10/21 03:01:14;;;;;;;25.63;18.07;;;8.40;99.90;;;;;;5115245;28;20855;-60
2023/10/21 03:03:41;;;;;;;26.50;17.60;;;8.40;99.90;;;;;;5115175;28;20445;-61
2023/10/21 03:06:08;;;;;;;27.00;18.43;;;8.50;99.90;;;;;;5114870;28;20478;-60
2023/10/21 03:08:36;;;;;;;27.20;17.50;;;8.50;99.90;;;;;;5114169;28;20801;-60
2023/10/21 03:11:03;;;;;;;25.63;18.10;;;8.40;99.90;;;;;;5115071;28;20448;-60
2023/10/21 03:13:30;;;;;;;25.67;17.67;;;8.40;99.90;;;;;;5114977;28;20441;-60
2023/10/21 03:15:56;;;;;;;25.90;19.00;;;8.40;99.90;;;;;;5114945;28;20843;-61
2023/10/21 03:18:23;;;;;;;28.47;18.17;;;8.40;99.90;;;;;;5114772;28;20445;-61
2023/10/21 03:20:50;;;;;;;25.90;18.77;;;8.40;99.90;;;;;;5114731;28;20449;-60
2023/10/21 03:23:18;;;;;;;26.20;17.83;;;8.40;99.90;;;;;;5114847;28;20454;-60
2023/10/21 03:25:54;;;;;;;36.73;19.60;;;8.40;99.90;;;;;;5114781;28;20785;-61
2023/10/21 03:28:22;;;;;;;26.13;17.93;;;8.40;99.90;;;;;;5114741;28;20932;-60
2023/10/21 03:30:48;;;;;;;31.73;17.90;;;8.40;99.90;;;;;;5114635;28;20452;-61
2023/10/21 03:33:15;;;;;;;24.40;17.03;;;8.40;99.90;;;;;;5114557;28;20452;-61
2023/10/21 03:35:41;;;;;;;25.93;18.60;;;8.50;99.90;;;;;;5114672;28;20452;-60
2023/10/21 03:38:08;;;;;;;23.40;17.60;;;8.50;99.90;;;;;;5114635;28;20484;-60
2023/10/21 03:40:34;;;;;;;24.23;17.30;;;8.50;99.90;;;;;;5114538;28;20477;-61
2023/10/21 03:43:02;;;;;;;25.00;18.43;;;8.50;99.90;;;;;;5114427;28;20448;-60
2023/10/21 03:45:28;;;;;;;25.63;17.70;;;8.50;99.90;;;;;;5114063;28;20564;-60
2023/10/21 03:47:55;;;;;;;24.30;18.00;;;8.50;99.90;;;;;;5114126;28;20499;-60
2023/10/21 03:50:21;;;;;;;27.93;20.23;;;8.50;99.90;;;;;;5114418;28;20536;-61
2023/10/21 03:52:48;;;;;;;26.13;18.80;;;8.50;99.90;;;;;;5114262;28;20441;-61
2023/10/21 03:55:14;;;;;;;29.73;18.43;;;8.50;99.90;;;;;;5114150;28;20449;-60
2023/10/21 03:57:41;;;;;;;24.77;17.90;;;8.50;99.90;;;;;;5114190;28;20442;-61
2023/10/21 04:00:12;;;;;;;26.40;18.57;;;8.50;99.90;;;;;;5114053;28;20438;-61
2023/10/21 04:02:38;;;;;;;27.67;18.27;;;8.50;99.90;;;;;;5114167;28;20446;-60
2023/10/21 04:05:08;;;;;;;28.60;20.70;;;8.50;99.90;;;;;;5114214;28;20487;-61
2023/10/21 04:07:34;;;;;;;22.47;17.37;;;8.60;99.90;;;;;;5114001;28;20529;-59
2023/10/21 04:10:01;;;;;;;26.27;18.70;;;8.60;99.90;;;;;;5113953;28;20446;-59
2023/10/21 04:12:29;;;;;;;25.77;18.23;;;8.50;99.90;;;;;;5113861;28;20441;-59
2023/10/21 04:14:56;;;;;;;27.10;18.30;;;8.40;99.90;;;;;;5113645;28;20446;-59
2023/10/21 04:17:23;;;;;;;24.97;17.93;;;8.50;99.90;;;;;;5113919;28;20446;-59
2023/10/21 04:19:51;;;;;;;25.20;19.73;;;8.50;99.90;;;;;;5113656;28;20978;-59
2023/10/21 04:22:18;;;;;;;25.03;18.50;;;8.50;99.90;;;;;;5113752;28;20442;-59
2023/10/21 04:24:44;;;;;;;27.67;17.53;;;8.40;99.90;;;;;;5113751;28;20850;-59
2023/10/21 04:27:11;;;;;;;27.63;17.87;;;8.40;99.90;;;;;;5113568;28;20843;-59
2023/10/21 04:29:38;;;;;;;28.43;19.17;;;8.40;99.90;;;;;;5113521;28;20940;-58
2023/10/21 04:32:05;;;;;;;22.17;16.77;;;8.40;99.90;;;;;;5113694;28;20468;-58
2023/10/21 04:34:36;;;;;;;29.97;18.87;;;8.40;99.90;;;;;;5113663;28;20442;-62
2023/10/21 04:37:03;;;;;;;22.13;16.53;;;8.40;99.90;;;;;;5113423;28;20450;-60
2023/10/21 04:39:30;;;;;;;29.47;18.70;;;8.40;99.90;;;;;;5113467;28;20549;-61
2023/10/21 04:41:57;;;;;;;23.60;17.23;;;8.40;99.90;;;;;;5113367;28;20494;-60
2023/10/21 04:44:24;;;;;;;28.43;17.47;;;8.40;99.90;;;;;;5113344;28;20468;-60
2023/10/21 04:46:50;;;;;;;26.27;17.80;;;8.40;99.90;;;;;;5113425;28;20487;-60
2023/10/21 04:49:16;;;;;;;29.77;19.40;;;8.40;99.90;;;;;;5113451;28;20537;-60
2023/10/21 04:51:45;;;;;;;24.20;17.23;;;8.40;99.90;;;;;;5113578;28;20460;-61
2023/10/21 04:54:12;;;;;;;21.13;16.40;;;8.40;99.90;;;;;;5113259;28;20955;-61
2023/10/21 04:56:38;;;;;;;22.70;17.50;;;8.40;99.90;;;;;;5113161;28;21019;-61
2023/10/21 04:59:05;;;;;;;19.13;16.33;;;8.40;99.90;;;;;;5113511;28;20936;-60
2023/10/21 05:01:32;;;;;;;24.93;16.60;;;8.50;99.90;;;;;;5113483;28;20453;-61
2023/10/21 05:03:59;;;;;;;22.70;16.60;;;8.60;99.90;;;;;;5113360;28;20434;-61
2023/10/21 05:06:25;;;;;;;24.80;15.50;;;8.60;99.90;;;;;;5113210;28;20560;-60
2023/10/21 05:08:53;;;;;;;28.57;15.87;;;8.60;99.90;;;;;;5113458;28;20537;-60
2023/10/21 05:11:20;;;;;;;22.60;15.60;;;8.60;99.90;;;;;;5113126;28;20446;-61
2023/10/21 05:13:46;;;;;;;27.60;16.70;;;8.60;99.90;;;;;;5113221;28;20445;-61
2023/10/21 05:16:12;;;;;;;32.40;17.57;;;8.50;99.90;;;;;;5113187;28;21012;-61
2023/10/21 05:18:39;;;;;;;20.00;16.57;;;8.50;99.90;;;;;;5113201;28;20532;-60
2023/10/21 05:21:08;;;;;;;25.70;16.53;;;8.50;99.90;;;;;;5113183;28;20441;-60
2023/10/21 05:23:34;;;;;;;19.50;15.10;;;8.50;99.90;;;;;;5113438;28;20481;-60
2023/10/21 05:26:02;;;;;;;20.97;14.90;;;8.50;99.90;;;;;;5113155;28;20571;-60
2023/10/21 05:28:29;;;;;;;19.33;15.57;;;8.50;99.90;;;;;;5113185;28;20445;-61
2023/10/21 05:30:55;;;;;;;23.93;16.43;;;8.50;99.90;;;;;;5113640;28;20533;-60
2023/10/21 05:33:22;;;;;;;20.27;16.07;;;8.40;99.90;;;;;;5116827;28;20944;-61
2023/10/21 05:35:48;;;;;;;24.90;15.03;;;8.40;99.90;;;;;;5116919;28;20532;-61
2023/10/21 05:38:15;;;;;;;19.60;14.47;;;8.50;99.90;;;;;;5116650;28;20445;-60
2023/10/21 05:40:43;;;;;;;23.50;15.40;;;8.40;99.90;;;;;;5117004;28;20800;-60
2023/10/21 05:43:11;;;;;;;22.73;15.80;;;8.50;99.90;;;;;;5116758;28;20532;-60
2023/10/21 05:45:37;;;;;;;26.60;16.47;;;8.50;99.90;;;;;;5116436;28;20477;-60
2023/10/21 05:48:05;;;;;;;23.70;16.03;;;8.50;99.90;;;;;;5116657;28;20532;-60
2023/10/21 05:50:31;;;;;;;22.70;14.57;;;8.40;99.90;;;;;;5116790;28;20447;-61
2023/10/21 05:52:58;;;;;;;21.50;15.53;;;8.50;99.90;;;;;;5116420;28;20473;-60
2023/10/21 05:55:24;;;;;;;17.90;13.90;;;8.40;99.90;;;;;;5116549;28;20442;-60
2023/10/21 05:57:51;;;;;;;21.07;14.90;;;8.40;99.90;;;;;;5116510;28;20532;-61
2023/10/21 06:00:19;;;;;;;19.80;14.33;;;8.40;99.90;;;;;;5116374;28;20442;-61
2023/10/21 06:02:45;;;;;;;19.33;14.07;;;8.40;99.90;;;;;;5116600;28;20532;-61
2023/10/21 06:05:14;;;;;;;23.13;15.10;;;8.40;99.90;;;;;;5116180;28;20528;-61
2023/10/21 06:07:40;;;;;;;20.80;15.13;;;8.50;99.90;;;;;;5116473;28;20492;-61
2023/10/21 06:10:08;;;;;;;21.07;15.23;;;8.50;99.90;;;;;;5116326;28;20533;-61
2023/10/21 06:12:35;;;;;;;18.47;15.17;;;8.60;99.90;;;;;;5116012;28;20933;-61
2023/10/21 06:15:02;;;;;;;17.77;13.70;;;8.60;99.90;;;;;;5115997;28;20950;-60
2023/10/21 06:17:30;;;;;;;20.80;14.60;;;8.70;99.90;;;;;;5116025;28;20456;-61
2023/10/21 06:19:56;;;;;;;21.07;14.43;;;8.70;99.90;;;;;;5115923;28;20468;-60
2023/10/21 06:22:23;;;;;;;20.97;14.23;;;8.70;99.90;;;;;;5116131;28;20537;-61
2023/10/21 06:24:49;;;;;;;17.27;14.27;;;8.70;99.90;;;;;;5115991;28;20442;-61
2023/10/21 06:27:15;;;;;;;17.37;13.27;;;8.70;99.90;;;;;;5116149;28;20477;-60
2023/10/21 06:29:42;;;;;;;16.73;13.87;;;8.70;99.90;;;;;;5115746;28;21008;-61
2023/10/21 06:32:09;;;;;;;16.57;13.50;;;8.80;99.90;;;;;;5115716;28;20864;-61
2023/10/21 06:34:37;;;;;;;27.80;13.03;;;8.80;99.90;;;;;;5115598;28;20801;-60
2023/10/21 06:37:04;;;;;;;18.10;12.77;;;8.80;99.90;;;;;;5115719;28;20541;-60
2023/10/21 06:39:31;;;;;;;16.20;12.93;;;8.70;99.90;;;;;;5115820;28;20891;-60
2023/10/21 06:41:58;;;;;;;15.00;13.23;;;8.70;99.90;;;;;;5115532;28;20552;-61
2023/10/21 06:44:24;;;;;;;16.83;12.90;;;8.80;99.90;;;;;;5115564;28;20473;-61
2023/10/21 06:46:51;;;;;;;18.50;12.67;;;8.80;99.90;;;;;;5115458;28;20909;-61
2023/10/21 06:49:19;;;;;;;17.53;13.27;;;8.80;99.90;;;;;;5115576;28;20445;-60
2023/10/21 06:51:49;;;;;;;17.83;12.63;;;8.80;99.90;;;;;;5115513;28;20449;-61
2023/10/21 06:54:17;;;;;;;14.50;11.47;;;8.80;99.90;;;;;;5115596;28;20446;-60
2023/10/21 06:56:43;;;;;;;20.43;14.67;;;8.80;99.90;;;;;;5115311;28;20448;-61
2023/10/21 06:59:10;;;;;;;21.60;13.80;;;8.80;99.90;;;;;;5115118;28;20442;-61
2023/10/21 07:01:36;;;;;;;16.13;13.37;;;8.90;99.90;;;;;;5114985;28;20441;-60
2023/10/21 07:04:03;;;;;;;14.67;11.83;;;8.80;99.90;;;;;;5115265;28;20537;-61
2023/10/21 07:06:30;;;;;;;14.93;13.33;;;8.90;99.90;;;;;;5115021;28;20474;-61
2023/10/21 07:08:57;;;;;;;19.53;15.83;;;8.80;99.90;;;;;;5114860;28;20442;-60
2023/10/21 07:11:24;;;;;;;16.80;14.50;;;8.80;99.90;;;;;;5115256;28;20536;-60
2023/10/21 07:13:51;;;;;;;15.60;13.40;;;8.80;99.90;;;;;;5114910;28;20446;-60
2023/10/21 07:16:17;;;;;;;17.10;13.87;;;8.90;99.90;;;;;;5114765;28;20456;-60
2023/10/21 07:18:44;;;;;;;23.73;14.27;;;8.90;99.90;;;;;;5115011;28;20448;-60
2023/10/21 07:21:10;;;;;;;17.07;14.37;;;8.80;99.90;;;;;;5114928;27;20479;-60
2023/10/21 07:23:37;;;;;;;18.40;13.97;;;9.00;99.90;;;;;;5114867;28;20934;-60
2023/10/21 07:26:05;;;;;;;17.00;13.27;;;9.00;99.90;;;;;;5114600;28;20438;-60
2023/10/21 07:28:33;;;;;;;21.30;13.67;;;9.10;99.90;;;;;;5114890;28;20484;-61
2023/10/21 07:31:00;;;;;;;16.80;13.87;;;9.20;99.90;;;;;;5114381;28;20453;-60
2023/10/21 07:33:27;;;;;;;16.37;13.80;;;9.30;99.90;;;;;;5114711;28;20449;-61
2023/10/21 07:35:53;;;;;;;16.93;14.87;;;9.40;99.90;;;;;;5114660;28;20809;-60
2023/10/21 07:38:20;;;;;;;17.17;14.20;;;9.30;99.90;;;;;;5114392;28;20446;-60
2023/10/21 07:40:47;;;;;;;18.67;14.33;;;9.50;99.90;;;;;;5114879;28;20536;-61
2023/10/21 07:43:16;;;;;;;17.30;14.40;;;9.50;99.90;;;;;;5114360;28;20536;-61
2023/10/21 07:45:42;;;;;;;14.40;12.90;;;9.50;99.90;;;;;;5114076;28;20473;-61
2023/10/21 07:48:10;;;;;;;18.07;13.57;;;9.60;99.90;;;;;;5114237;28;20487;-60
2023/10/21 07:50:37;;;;;;;17.20;14.33;;;9.60;99.90;;;;;;5114302;28;20885;-61
2023/10/21 07:53:04;;;;;;;16.50;14.63;;;9.50;99.90;;;;;;5114172;28;20855;-61
2023/10/21 07:55:30;;;;;;;17.50;14.83;;;9.50;99.90;;;;;;5113798;28;20525;-60
2023/10/21 07:57:57;;;;;;;14.40;12.90;;;9.60;99.90;;;;;;5113899;28;20544;-61
2023/10/21 08:00:25;;;;;;;19.00;15.63;;;9.60;99.90;;;;;;5114202;28;20830;-61
2023/10/21 08:02:51;;;;;;;17.83;14.90;;;9.70;99.90;;;;;;5114040;28;20603;-61
2023/10/21 08:05:18;;;;;;;17.53;14.90;;;9.70;99.90;;;;;;5113933;28;20449;-63
2023/10/21 08:07:44;;;;;;;18.80;14.70;;;9.70;99.90;;;;;;5113742;28;20534;-61
2023/10/21 08:10:11;;;;;;;20.83;15.33;;;9.80;99.90;;;;;;5113881;28;20959;-61
2023/10/21 08:12:37;;;;;;;18.50;15.70;;;9.90;99.90;;;;;;5114297;28;20541;-60
2023/10/21 08:15:05;;;;;;;18.90;14.97;;;10.00;99.90;;;;;;5113712;28;20451;-61
2023/10/21 08:17:33;;;;;;;18.40;14.70;;;10.20;99.90;;;;;;5113783;28;20857;-61
2023/10/21 08:20:00;;;;;;;19.20;14.90;;;10.30;99.90;;;;;;5113638;28;20449;-61
2023/10/21 08:22:27;;;;;;;16.03;14.33;;;10.40;99.90;;;;;;5113731;28;20446;-60
2023/10/21 08:24:54;;;;;;;19.07;14.60;;;10.50;99.90;;;;;;5113865;28;20533;-60
2023/10/21 08:27:20;;;;;;;15.90;13.33;;;10.60;99.90;;;;;;5113694;28;20534;-61
2023/10/21 08:29:48;;;;;;;20.40;15.13;;;10.70;99.90;;;;;;5113691;28;20456;-63
2023/10/21 08:32:15;;;;;;;17.90;14.80;;;10.80;99.90;;;;;;5113685;28;20888;-61
2023/10/21 08:34:42;;;;;;;16.77;14.30;;;11.00;99.90;;;;;;5113551;28;20541;-61
2023/10/21 08:37:09;;;;;;;15.97;14.40;;;11.20;99.90;;;;;;5113490;28;20455;-61
2023/10/21 08:39:36;;;;;;;15.87;13.40;;;11.30;99.90;;;;;;5113586;28;20445;-61
2023/10/21 08:42:03;;;;;;;15.20;13.60;;;11.30;99.90;;;;;;5113570;28;20524;-61
2023/10/21 08:44:31;;;;;;;15.93;14.17;;;11.40;99.90;;;;;;5113316;28;21010;-61
2023/10/21 08:47:00;;;;;;;15.10;13.33;;;11.30;99.90;;;;;;5113378;28;20845;-61
2023/10/21 08:49:27;;;;;;;17.80;15.33;;;11.50;99.90;;;;;;5113325;28;20456;-61
2023/10/21 08:51:57;;;;;;;15.47;13.97;;;11.50;99.90;;;;;;5113350;28;20947;-61
2023/10/21 08:54:25;;;;;;;15.70;13.97;;;11.60;99.90;;;;;;5113220;28;20541;-61
2023/10/21 08:56:51;;;;;;;15.40;13.30;;;11.60;99.90;;;;;;5113407;28;20535;-61
2023/10/21 08:59:17;;;;;;;17.03;13.83;;;11.70;99.90;;;;;;5113323;28;20536;-61
2023/10/21 09:01:45;;;;;;;15.03;13.43;;;11.70;99.90;;;;;;5113247;28;20533;-61
2023/10/21 09:04:13;;;;;;;16.23;12.97;;;11.80;99.90;;;;;;5113258;28;20479;-60
2023/10/21 09:06:53;;;;;;;14.93;13.43;;;11.90;99.90;;;;;;5114911;28;20465;-61
2023/10/21 09:09:26;;;;;;;15.70;12.47;;;11.90;99.90;;;;;;5117489;28;20452;-61
2023/10/21 09:12:09;;;;;;;12.97;11.60;;;11.90;99.90;;;;;;5117316;28;20441;-61
2023/10/21 09:14:52;;;;;;;12.93;11.63;;;12.00;99.90;;;;;;5117210;28;20452;-61
2023/10/21 09:17:18;;;;;;;12.60;11.40;;;12.10;99.90;;;;;;5117134;28;20716;-61
2023/10/21 09:19:48;;;;;;;12.80;11.60;;;12.30;99.90;;;;;;5117267;28;20536;-61
2023/10/21 09:22:22;;;;;;;13.13;11.93;;;12.40;99.90;;;;;;5117420;28;20441;-61
2023/10/21 09:24:50;;;;;;;13.00;11.17;;;12.60;99.90;;;;;;5117129;28;20856;-61
2023/10/21 09:27:16;;;;;;;12.63;11.43;;;12.70;99.90;;;;;;5116929;28;20473;-61
2023/10/21 09:29:43;;;;;;;13.40;12.10;;;12.80;99.90;;;;;;5116828;28;20446;-61
2023/10/21 09:32:09;;;;;;;11.83;10.67;;;12.90;99.90;;;;;;5117091;28;20541;-61
2023/10/21 09:34:37;;;;;;;11.17;10.07;;;13.00;99.90;;;;;;5116999;28;20649;-61
2023/10/21 09:37:06;;;;;;;11.60;10.50;;;13.00;99.90;;;;;;5116871;28;20529;-61
2023/10/21 09:39:35;;;;;;;10.97;9.97;;;13.00;99.90;;;;;;5116996;28;20528;-61
2023/10/21 09:42:03;;;;;;;11.57;10.50;;;13.10;99.90;;;;;;5116816;28;20441;-61
2023/10/21 09:44:30;;;;;;;11.60;10.50;;;13.20;99.90;;;;;;5116474;28;20473;-61
2023/10/21 09:46:59;;;;;;;11.83;9.63;;;13.20;99.90;;;;;;5116598;28;20473;-61
2023/10/21 09:49:27;;;;;;;10.00;9.10;;;13.30;99.90;;;;;;5116682;28;20867;-61
2023/10/21 09:52:05;;;;;;;9.57;8.57;;;13.40;99.90;;;;;;5116505;28;20442;-61
2023/10/21 09:54:41;;;;;;;10.20;9.20;;;13.50;99.90;;;;;;5116388;28;20441;-61
2023/10/21 09:57:09;;;;;;;10.17;9.27;;;13.50;99.90;;;;;;5116596;28;20460;-61
2023/10/21 09:59:37;;;;;;;9.53;8.57;;;13.60;99.90;;;;;;5116475;28;20438;-61
2023/10/21 10:02:06;;;;;;;8.50;7.80;;;13.70;99.90;;;;;;5116332;28;20441;-61
2023/10/21 10:04:34;;;;;;;12.13;7.60;;;13.70;99.90;;;;;;5116273;28;20441;-61
2023/10/21 10:07:06;;;;;;;7.73;7.03;;;13.80;99.90;;;;;;5116045;28;20556;-61
2023/10/21 10:09:33;;;;;;;8.10;7.40;;;13.70;99.90;;;;;;5116373;28;20442;-61
2023/10/21 10:12:02;;;;;;;7.53;6.83;;;13.80;99.90;;;;;;5116362;28;20880;-61
2023/10/21 10:14:29;;;;;;;7.70;7.00;;;13.80;99.90;;;;;;5116359;28;20533;-62
2023/10/21 10:16:56;;;;;;;7.50;6.70;;;14.10;99.90;;;;;;5115629;28;20655;-59
2023/10/21 10:19:39;;;;;;;7.27;6.63;;;14.20;99.90;;;;;;5115895;28;20958;-59
2023/10/21 10:22:18;;;;;;;5.67;5.27;;;14.40;99.90;;;;;;5116079;28;20529;-59
2023/10/21 10:24:51;;;;;;;11.50;6.40;;;14.60;99.90;;;;;;5115833;28;20948;-59
2023/10/21 10:27:19;;;;;;;6.30;5.80;;;14.80;99.90;;;;;;5115796;28;20476;-62
2023/10/21 10:29:50;;;;;;;6.37;5.87;;;14.90;99.90;;;;;;5116012;28;20441;-61
2023/10/21 10:32:17;;;;;;;5.90;5.40;;;15.10;99.90;;;;;;5115700;28;20981;-61
2023/10/21 10:34:52;;;;;;;5.90;5.43;;;15.10;99.90;;;;;;5115891;28;20442;-61
2023/10/21 10:37:26;;;;;;;7.23;5.40;;;15.20;99.90;;;;;;5115772;28;20807;-62
2023/10/21 10:39:54;;;;;;;4.73;4.23;;;15.30;99.90;;;;;;5115544;28;20490;-58
2023/10/21 10:42:20;;;;;;;4.80;4.43;;;15.30;99.90;;;;;;5115575;28;20506;-61
2023/10/21 10:44:49;;;;;;;4.37;4.07;;;15.40;99.90;;;;;;5115242;28;20479;-60
2023/10/21 10:47:17;;;;;;;3.97;3.67;;;15.40;99.90;;;;;;5115560;28;20469;-61
2023/10/21 10:49:57;;;;;;;4.10;3.80;;;15.50;99.90;;;;;;5115594;28;20522;-58
2023/10/21 10:52:28;;;;;;;3.73;3.43;;;15.60;99.90;;;;;;5115485;28;20508;-58
2023/10/21 10:54:55;;;;;;;3.40;3.10;;;15.70;99.90;;;;;;5115298;28;20538;-58
2023/10/21 10:57:22;;;;;;;3.60;3.30;;;15.80;99.90;;;;;;5115480;28;20452;-58
2023/10/21 10:59:50;;;;;;;3.00;2.80;;;15.90;99.90;;;;;;5115260;28;20529;-59
2023/10/21 11:02:17;;;;;;;2.60;2.40;;;16.00;99.90;;;;;;5115093;28;20441;-58
2023/10/21 11:04:44;;;;;;;2.53;1.90;;;16.10;99.90;;;;;;5114885;28;21019;-61
2023/10/21 11:07:12;;;;;;;1.50;1.40;;;16.20;99.90;;;;;;5114935;28;20470;-61
2023/10/21 11:09:38;;;;;;;4.03;1.40;;;16.30;99.90;;;;;;5114882;28;20452;-59
2023/10/21 11:12:05;;;;;;;1.90;0.90;;;16.40;99.90;;;;;;5115140;28;20529;-58
2023/10/21 11:14:32;;;;;;;0.83;0.83;;;16.60;99.90;;;;;;5114921;28;20446;-59
2023/10/21 11:17:01;;;;;;;1.93;1.10;;;16.70;99.90;;;;;;5114878;28;21003;-59
2023/10/21 11:19:27;;;;;;;2.70;0.80;;;16.90;99.90;;;;;;5114771;28;20892;-58
2023/10/21 11:21:53;;;;;;;0.80;0.80;;;17.00;99.90;;;;;;5114709;28;20524;-59
2023/10/21 11:24:22;;;;;;;0.83;0.80;;;17.10;99.90;;;;;;5114559;28;20574;-59
2023/10/21 11:26:51;;;;;;;0.80;0.70;;;17.30;99.90;;;;;;5114773;28;20771;-59
2023/10/21 11:29:18;;;;;;;1.00;0.70;;;17.40;99.90;;;;;;5113728;28;20909;-58
2023/10/21 11:31:45;;;;;;;0.80;0.70;;;17.40;99.90;;;;;;5114627;28;20438;-59
2023/10/21 11:34:15;;;;;;;1.27;0.70;;;17.50;99.90;;;;;;5114476;28;20528;-59
2023/10/21 11:36:44;;;;;;;1.77;0.70;;;17.60;99.90;;;;;;5114432;28;20512;-59
2023/10/21 11:39:13;;;;;;;1.03;0.60;;;17.80;99.90;;;;;;5114600;28;20489;-59
2023/10/21 11:41:47;;;;;;;1.73;0.80;;;17.90;99.90;;;;;;5114383;28;20486;-60
2023/10/21 11:44:14;;;;;;;1.40;0.73;;;17.90;99.90;;;;;;5114134;28;20824;-60
2023/10/21 11:46:40;;;;;;;0.80;0.80;;;17.90;99.90;;;;;;5114385;28;20494;-60
2023/10/21 11:49:13;;;;;;;0.63;0.53;;;17.90;99.90;;;;;;5114147;28;20840;-60
2023/10/21 11:51:42;;;;;;;1.07;0.60;;;17.90;99.90;;;;;;5114268;28;20624;-60
2023/10/21 11:54:19;;;;;;;0.70;0.60;;;18.00;99.90;;;;;;5114314;28;20460;-60
2023/10/21 11:57:00;;;;;;;1.37;0.70;;;18.00;99.90;;;;;;5114163;28;20513;-60
2023/10/21 12:03:19;;;;;;;0.70;0.60;;;18.00;99.90;;;;;;5114088;28;20431;-60
2023/10/21 12:16:29;;;;;;;1.03;0.60;;;17.90;99.90;;;;;;5113564;28;20446;-61
2023/10/21 12:24:58;;;;;;;1.13;0.60;;;17.90;99.90;;;;;;5082050;28;20438;-60
2023/10/21 12:30:42;;;;;;;1.23;0.60;;;18.20;99.90;;;;;;5113566;28;20444;-60
2023/10/21 12:33:22;;;;;;;0.80;0.57;;;18.20;99.90;;;;;;5113557;28;20433;-61
2023/10/21 12:35:54;;;;;;;0.90;0.70;;;18.20;99.90;;;;;;5113595;28;20859;-61
2023/10/21 12:38:24;;;;;;;1.73;0.80;;;18.30;99.90;;;;;;5113616;28;20445;-60
2023/10/21 12:43:36;;;;;;;0.97;0.70;;;18.40;99.90;;;;;;5112867;28;20433;-60
2023/10/21 12:46:14;;;;;;;0.70;0.67;;;18.50;99.90;;;;;;5113353;28;20470;-60
2023/10/21 12:48:41;;;;;;;0.80;0.70;;;18.50;99.90;;;;;;5113462;28;20534;-60
2023/10/21 12:51:09;;;;;;;1.00;0.70;;;18.50;99.90;;;;;;5113336;28;20513;-60
2023/10/21 12:53:36;;;;;;;1.80;0.90;;;18.50;99.90;;;;;;5113370;28;20533;-61
2023/10/21 12:56:06;;;;;;;1.00;0.70;;;18.30;99.90;;;;;;5112971;28;20447;-60
2023/10/21 12:58:33;;;;;;;1.00;0.70;;;18.30;99.90;;;;;;5113437;28;20547;-61
2023/10/21 13:01:00;;;;;;;0.70;0.60;;;18.20;99.90;;;;;;5113376;28;20499;-60
2023/10/21 13:03:27;;;;;;;0.70;0.60;;;18.00;99.90;;;;;;5113376;28;20445;-60
2023/10/21 13:05:53;;;;;;;1.20;0.73;;;18.00;99.90;;;;;;5113199;28;20872;-60
2023/10/21 13:08:20;;;;;;;2.10;0.60;;;18.00;99.90;;;;;;5112970;28;20520;-60
2023/10/21 13:10:48;;;;;;;0.80;0.73;;;17.80;99.90;;;;;;5113326;28;20445;-60